createdAt,value
2022-12-13T00:01:41.999Z,-6.06
2022-12-13T00:04:43.660Z,-6.07
2022-12-13T00:07:45.506Z,-6.06
2022-12-13T00:10:47.166Z,-6.11
2022-12-13T00:13:50.255Z,-6.11
2022-12-13T00:16:51.888Z,-6.18
2022-12-13T00:19:53.659Z,-6.20
2022-12-13T00:22:55.396Z,-6.24
2022-12-13T00:26:01.678Z,-6.16
2022-12-13T00:29:06.012Z,-6.14
2022-12-13T00:32:07.636Z,-6.20
2022-12-13T00:35:09.519Z,-6.25
2022-12-13T00:38:11.443Z,-6.23
2022-12-13T00:41:13.592Z,-6.17
2022-12-13T00:44:16.778Z,-6.09
2022-12-13T00:47:20.839Z,-6.15
2022-12-13T00:50:22.658Z,-6.10
2022-12-13T00:53:24.412Z,-6.14
2022-12-13T00:56:27.783Z,-6.10
2022-12-13T00:59:30.886Z,-6.10
2022-12-13T01:02:32.438Z,-6.10
2022-12-13T01:06:12.881Z,-6.08
2022-12-13T01:08:57.168Z,-6.10
2022-12-13T01:12:00.258Z,-6.06
2022-12-13T01:15:03.989Z,-6.09
2022-12-13T01:18:05.664Z,-6.15
2022-12-13T01:21:08.446Z,-6.23
2022-12-13T01:24:10.462Z,-6.17
2022-12-13T01:27:12.110Z,-6.01
2022-12-13T01:30:15.252Z,-6.03
2022-12-13T01:33:16.999Z,-6.01
2022-12-13T01:36:19.708Z,-6.05
2022-12-13T01:39:31.041Z,-6.15
2022-12-13T01:42:40.072Z,-6.16
2022-12-13T01:45:43.508Z,-6.17
2022-12-13T01:48:47.593Z,-6.06
2022-12-13T01:51:53.546Z,-6.05
2022-12-13T01:54:57.474Z,-6.01
2022-12-13T01:58:06.168Z,-6.04
2022-12-13T02:01:09.249Z,-5.99
2022-12-13T02:04:11.632Z,-6.03
2022-12-13T02:07:23.296Z,-6.04
2022-12-13T02:10:25.798Z,-6.00
2022-12-13T02:13:27.502Z,-6.03
2022-12-13T02:16:39.123Z,-5.96
2022-12-13T02:19:58.668Z,-6.05
2022-12-13T02:23:10.055Z,-6.11
2022-12-13T02:26:22.960Z,-6.05
2022-12-13T02:29:45.703Z,-6.07
2022-12-13T02:32:56.289Z,-6.06
2022-12-13T02:36:04.958Z,-6.10
2022-12-13T02:39:08.914Z,-6.18
2022-12-13T02:42:22.009Z,-6.18
2022-12-13T02:45:27.958Z,-6.27
2022-12-13T02:48:34.247Z,-6.28
2022-12-13T02:51:39.518Z,-6.20
2022-12-13T02:54:42.787Z,-6.19
2022-12-13T02:57:45.383Z,-6.17
2022-12-13T03:00:52.579Z,-6.27
2022-12-13T03:04:01.211Z,-6.23
2022-12-13T03:07:08.442Z,-6.18
2022-12-13T03:10:14.274Z,-6.24
2022-12-13T03:13:38.021Z,-6.22
2022-12-13T03:16:42.369Z,-6.18
2022-12-13T03:19:45.305Z,-6.14
2022-12-13T03:22:46.854Z,-6.13
2022-12-13T03:25:50.228Z,-6.15
2022-12-13T03:28:53.514Z,-6.16
2022-12-13T03:31:55.296Z,-6.23
2022-12-13T03:35:12.204Z,-6.18
2022-12-13T03:38:21.921Z,-6.18
2022-12-13T03:41:31.768Z,-6.16
2022-12-13T03:44:33.358Z,-6.17
2022-12-13T03:47:35.134Z,-6.16
2022-12-13T03:50:38.203Z,-6.15
2022-12-13T03:53:40.094Z,-6.03
2022-12-13T03:56:42.073Z,-6.02
2022-12-13T03:59:43.653Z,-6.10
2022-12-13T04:02:45.377Z,-6.08
2022-12-13T04:05:48.512Z,-6.00
2022-12-13T04:08:51.291Z,-5.99
2022-12-13T04:12:12.292Z,-6.01
2022-12-13T04:15:14.092Z,-6.08
2022-12-13T04:18:16.333Z,-6.13
2022-12-13T04:21:19.300Z,-6.08
2022-12-13T04:24:21.009Z,-6.06
2022-12-13T04:27:22.912Z,-6.07
2022-12-13T04:30:24.511Z,-6.09
2022-12-13T04:33:26.157Z,-6.16
2022-12-13T04:36:31.428Z,-6.20
2022-12-13T04:39:34.702Z,-6.18
2022-12-13T04:42:36.570Z,-6.21
2022-12-13T04:45:38.261Z,-6.19
2022-12-13T04:48:39.928Z,-6.23
2022-12-13T04:51:42.966Z,-6.25
2022-12-13T04:54:55.794Z,-6.31
2022-12-13T04:57:57.974Z,-6.43
2022-12-13T05:00:59.775Z,-6.45
2022-12-13T05:04:03.362Z,-6.51
2022-12-13T05:07:06.542Z,-6.51
2022-12-13T05:10:08.484Z,-6.52
2022-12-13T05:13:10.168Z,-6.60
2022-12-13T05:16:12.630Z,-6.59
2022-12-13T05:19:14.852Z,-6.54
2022-12-13T05:22:20.836Z,-6.55
2022-12-13T05:25:22.787Z,-6.59
2022-12-13T05:28:27.100Z,-6.61
2022-12-13T05:31:33.589Z,-6.58
2022-12-13T05:34:35.376Z,-6.66
2022-12-13T05:37:38.442Z,-6.63
2022-12-13T05:40:40.026Z,-6.64
2022-12-13T05:43:43.864Z,-6.64
2022-12-13T05:46:46.202Z,-6.57
2022-12-13T05:49:47.981Z,-6.54
2022-12-13T05:52:51.268Z,-6.60
2022-12-13T05:55:52.874Z,-6.60
2022-12-13T05:58:54.782Z,-6.61
2022-12-13T06:01:57.129Z,-6.68
2022-12-13T06:04:58.825Z,-6.74
2022-12-13T06:08:01.908Z,-6.68
2022-12-13T06:11:10.970Z,-6.59
2022-12-13T06:14:22.729Z,-6.59
2022-12-13T06:17:25.333Z,-6.61
2022-12-13T06:20:27.082Z,-6.64
2022-12-13T06:23:30.898Z,-6.63
2022-12-13T06:26:32.564Z,-6.61
2022-12-13T06:29:34.412Z,-6.63
2022-12-13T06:32:39.971Z,-6.56
2022-12-13T06:35:44.231Z,-6.58
2022-12-13T06:38:47.155Z,-6.54
2022-12-13T06:41:48.803Z,-6.62
2022-12-13T06:44:56.208Z,-6.63
2022-12-13T06:47:59.113Z,-6.57
2022-12-13T06:51:01.747Z,-6.52
2022-12-13T06:54:04.902Z,-6.56
2022-12-13T06:57:06.510Z,-6.67
2022-12-13T07:00:08.922Z,-6.76
2022-12-13T07:03:11.469Z,-6.77
2022-12-13T07:06:14.482Z,-6.81
2022-12-13T07:09:17.510Z,-6.75
2022-12-13T07:12:21.039Z,-6.76
2022-12-13T07:15:22.784Z,-6.72
2022-12-13T07:18:24.325Z,-6.75
2022-12-13T07:21:25.949Z,-6.85
2022-12-13T07:24:28.885Z,-6.87
2022-12-13T07:27:30.630Z,-6.90
2022-12-13T07:30:33.386Z,-6.88
2022-12-13T07:33:35.634Z,-6.82
2022-12-13T07:36:37.270Z,-6.82
2022-12-13T07:39:40.741Z,-6.83
2022-12-13T07:42:48.800Z,-6.89
2022-12-13T07:45:50.783Z,-6.92
2022-12-13T07:48:52.485Z,-6.92
2022-12-13T07:52:03.323Z,-6.92
2022-12-13T07:55:07.398Z,-6.95
2022-12-13T07:58:10.045Z,-6.97
2022-12-13T08:01:12.163Z,-6.94
2022-12-13T08:04:14.220Z,-6.88
2022-12-13T08:07:15.920Z,-6.74
2022-12-13T08:10:19.278Z,-6.84
2022-12-13T08:13:21.334Z,-6.86
2022-12-13T08:16:27.824Z,-6.84
2022-12-13T08:19:30.536Z,-6.74
2022-12-13T08:22:35.947Z,-6.74
2022-12-13T08:25:39.331Z,-6.69
2022-12-13T08:28:41.122Z,-6.67
2022-12-13T08:31:42.817Z,-6.70
2022-12-13T08:34:45.565Z,-6.64
2022-12-13T08:37:47.313Z,-6.65
2022-12-13T08:40:51.669Z,-6.61
2022-12-13T08:43:53.326Z,-6.58
2022-12-13T08:46:55.349Z,-6.56
2022-12-13T08:50:02.971Z,-6.62
2022-12-13T08:53:05.490Z,-6.59
2022-12-13T08:56:10.926Z,-6.61
2022-12-13T08:59:12.569Z,-6.52
2022-12-13T09:02:17.996Z,-6.50
2022-12-13T09:05:34.167Z,-6.51
2022-12-13T09:08:37.488Z,-6.58
2022-12-13T09:11:43.486Z,-6.62
2022-12-13T09:14:46.125Z,-6.57
2022-12-13T09:17:52.471Z,-6.62
2022-12-13T09:20:54.511Z,-6.63
2022-12-13T09:24:23.942Z,-6.49
2022-12-13T09:27:29.071Z,-6.36
2022-12-13T09:30:31.525Z,-6.29
2022-12-13T09:33:41.601Z,-6.38
2022-12-13T09:36:43.689Z,-6.51
2022-12-13T09:39:47.503Z,-6.39
2022-12-13T09:43:13.256Z,-6.34
2022-12-13T09:46:22.984Z,-6.40
2022-12-13T09:49:28.423Z,-6.33
2022-12-13T09:52:38.163Z,-6.40
2022-12-13T09:55:42.485Z,-6.20
2022-12-13T09:58:47.823Z,-5.88
2022-12-13T10:01:49.469Z,-5.68
2022-12-13T10:04:52.290Z,-5.73
2022-12-13T10:08:06.275Z,-5.69
2022-12-13T10:11:11.955Z,-5.52
2022-12-13T10:14:19.089Z,-5.58
2022-12-13T10:17:22.062Z,-5.51
2022-12-13T10:20:26.262Z,-5.40
2022-12-13T10:23:42.612Z,-5.31
2022-12-13T10:26:50.062Z,-5.27
2022-12-13T10:30:04.019Z,-5.35
2022-12-13T10:33:06.068Z,-5.40
2022-12-13T10:36:09.346Z,-5.16
2022-12-13T10:39:16.210Z,-5.00
2022-12-13T10:42:22.516Z,-5.03
2022-12-13T10:45:26.822Z,-5.02
2022-12-13T10:48:38.751Z,-4.89
2022-12-13T10:51:41.401Z,-4.82
2022-12-13T10:54:48.224Z,-4.75
2022-12-13T10:57:52.266Z,-4.78
2022-12-13T11:01:07.802Z,-4.81
2022-12-13T11:04:27.128Z,-4.81
2022-12-13T11:07:30.959Z,-4.78
2022-12-13T11:10:32.997Z,-4.75
2022-12-13T11:13:36.995Z,-4.53
2022-12-13T11:16:41.509Z,-4.40
2022-12-13T11:19:45.425Z,-4.26
2022-12-13T11:22:47.164Z,-4.35
2022-12-13T11:25:49.049Z,-4.37
2022-12-13T11:28:59.597Z,-4.43
2022-12-13T11:32:09.189Z,-4.44
2022-12-13T11:35:15.460Z,-4.43
2022-12-13T11:38:28.508Z,-4.37
2022-12-13T11:41:34.039Z,-4.34
2022-12-13T11:44:45.918Z,-4.34
2022-12-13T11:48:01.637Z,-4.36
2022-12-13T11:51:05.760Z,-4.27
2022-12-13T11:54:10.768Z,-4.21
2022-12-13T11:57:16.627Z,-4.13
2022-12-13T12:00:33.882Z,-4.17
2022-12-13T12:03:40.962Z,-4.06
2022-12-13T12:06:46.378Z,-4.07
2022-12-13T12:09:50.605Z,-3.89
2022-12-13T12:12:55.627Z,-4.10
2022-12-13T12:16:06.567Z,-4.10
2022-12-13T12:19:13.005Z,-3.97
2022-12-13T12:22:19.340Z,-3.95
2022-12-13T12:25:25.818Z,-4.06
2022-12-13T12:28:30.997Z,-3.92
2022-12-13T12:31:51.455Z,-3.91
2022-12-13T12:34:57.364Z,-3.82
2022-12-13T12:38:05.590Z,-3.84
2022-12-13T12:41:28.491Z,-3.82
2022-12-13T12:44:34.889Z,-3.85
2022-12-13T12:48:38.572Z,-3.93
2022-12-13T12:51:09.723Z,-3.95
2022-12-13T12:54:23.432Z,-4.05
2022-12-13T12:57:32.767Z,-3.87
2022-12-13T13:00:40.850Z,-3.84
2022-12-13T13:03:43.399Z,-3.78
2022-12-13T13:06:47.630Z,-3.87
2022-12-13T13:09:51.551Z,-3.95
2022-12-13T13:13:11.647Z,-3.95
2022-12-13T13:16:35.022Z,-3.93
2022-12-13T13:19:41.103Z,-4.00
2022-12-13T13:22:47.674Z,-3.99
2022-12-13T13:26:24.333Z,-3.95
2022-12-13T13:29:43.495Z,-3.97
2022-12-13T13:32:46.067Z,-3.88
2022-12-13T13:35:50.576Z,-3.87
2022-12-13T13:39:01.678Z,-3.95
2022-12-13T13:42:17.117Z,-3.99
2022-12-13T13:45:20.398Z,-4.04
2022-12-13T13:48:28.332Z,-3.98
2022-12-13T13:52:16.654Z,-3.91
2022-12-13T13:55:24.614Z,-3.98
2022-12-13T13:58:51.438Z,-4.09
2022-12-13T14:02:10.882Z,-4.10
2022-12-13T14:05:34.720Z,-4.20
2022-12-13T14:08:41.737Z,-4.27
2022-12-13T14:12:06.047Z,-4.31
2022-12-13T14:15:35.639Z,-4.37
2022-12-13T14:19:11.668Z,-4.46
2022-12-13T14:22:21.069Z,-4.53
2022-12-13T14:25:32.267Z,-4.60
2022-12-13T14:28:41.899Z,-4.75
2022-12-13T14:31:45.214Z,-4.83
2022-12-13T14:34:47.031Z,-4.90
2022-12-13T14:37:56.647Z,-4.96
2022-12-13T14:40:59.914Z,-4.92
2022-12-13T14:44:15.670Z,-4.96
2022-12-13T14:47:17.659Z,-5.02
2022-12-13T14:50:19.557Z,-5.08
2022-12-13T14:53:24.607Z,-5.16
2022-12-13T14:56:28.483Z,-5.20
2022-12-13T14:59:33.459Z,-5.21
2022-12-13T15:02:35.158Z,-5.26
2022-12-13T15:05:38.556Z,-5.30
2022-12-13T15:08:42.001Z,-5.35
2022-12-13T15:11:44.600Z,-5.40
2022-12-13T15:14:49.790Z,-5.42
2022-12-13T15:18:04.301Z,-5.44
2022-12-13T15:21:17.835Z,-5.45
2022-12-13T15:24:24.547Z,-5.48
2022-12-13T15:27:27.067Z,-5.58
2022-12-13T15:30:31.811Z,-5.63
2022-12-13T15:33:38.052Z,-5.71
2022-12-13T15:36:42.626Z,-5.77
2022-12-13T15:39:47.832Z,-5.80
2022-12-13T15:42:50.475Z,-5.79
2022-12-13T15:45:53.736Z,-5.82
2022-12-13T15:48:56.008Z,-5.85
2022-12-13T15:51:58.815Z,-5.85
2022-12-13T15:55:02.285Z,-5.86
2022-12-13T15:58:03.946Z,-5.89
2022-12-13T16:01:07.001Z,-5.90
2022-12-13T16:04:08.764Z,-5.93
2022-12-13T16:07:19.841Z,-5.98
2022-12-13T16:10:22.022Z,-5.99
2022-12-13T16:13:26.183Z,-6.01
2022-12-13T16:16:30.504Z,-6.06
2022-12-13T16:19:32.716Z,-6.02
2022-12-13T16:22:34.495Z,-5.93
2022-12-13T16:25:36.230Z,-5.97
2022-12-13T16:28:38.061Z,-5.96
2022-12-13T16:31:44.606Z,-5.95
2022-12-13T16:34:46.189Z,-6.02
2022-12-13T16:37:48.195Z,-6.09
2022-12-13T16:40:52.173Z,-6.09
2022-12-13T16:43:55.987Z,-6.02
2022-12-13T16:47:11.963Z,-6.02
2022-12-13T16:50:21.083Z,-6.02
2022-12-13T16:53:22.743Z,-6.08
2022-12-13T16:56:24.543Z,-6.18
2022-12-13T16:59:27.146Z,-6.21
2022-12-13T17:05:33.273Z,-6.19
2022-12-13T17:08:34.886Z,-6.20
2022-12-13T17:11:36.949Z,-6.29
2022-12-13T17:14:38.654Z,-6.41
2022-12-13T17:17:42.467Z,-6.44
2022-12-13T17:20:44.272Z,-6.55
2022-12-13T17:23:46.009Z,-6.52
2022-12-13T17:26:54.629Z,-6.52
2022-12-13T17:29:56.923Z,-6.42
2022-12-13T17:33:00.189Z,-6.45
2022-12-13T17:36:03.190Z,-6.47
2022-12-13T17:39:04.836Z,-6.47
2022-12-13T17:42:06.790Z,-6.47
2022-12-13T17:45:08.706Z,-6.53
2022-12-13T17:48:11.705Z,-6.52
2022-12-13T17:51:14.082Z,-6.52
2022-12-13T17:54:15.720Z,-6.49
2022-12-13T17:57:17.413Z,-6.39
2022-12-13T18:00:19.154Z,-6.29
2022-12-13T18:03:22.455Z,-6.24
2022-12-13T18:06:24.947Z,-6.15
2022-12-13T18:09:26.514Z,-6.14
2022-12-13T18:12:28.288Z,-6.10
2022-12-13T18:15:30.688Z,-6.12
2022-12-13T18:18:36.898Z,-6.16
2022-12-13T18:21:38.692Z,-6.28
2022-12-13T18:24:40.374Z,-6.33
2022-12-13T18:27:42.661Z,-6.37
2022-12-13T18:30:44.381Z,-6.36
2022-12-13T18:33:48.330Z,-6.36
2022-12-13T18:36:49.915Z,-6.38
2022-12-13T18:39:54.596Z,-6.38
2022-12-13T18:42:56.865Z,-6.39
2022-12-13T18:46:01.380Z,-6.43
2022-12-13T18:49:04.715Z,-6.44
2022-12-13T18:52:06.385Z,-6.45
2022-12-13T18:55:08.297Z,-6.43
2022-12-13T18:58:10.046Z,-6.43
2022-12-13T19:01:12.821Z,-6.43
2022-12-13T19:04:15.862Z,-6.43
2022-12-13T19:07:17.430Z,-6.39
2022-12-13T19:10:19.292Z,-6.44
2022-12-13T19:13:22.977Z,-6.47
2022-12-13T19:16:26.192Z,-6.47
2022-12-13T19:19:29.394Z,-6.46
2022-12-13T19:22:30.926Z,-6.46
2022-12-13T19:25:32.556Z,-6.46
2022-12-13T19:28:34.529Z,-6.46
2022-12-13T19:31:36.463Z,-6.43
2022-12-13T19:34:39.507Z,-6.44
2022-12-13T19:37:41.211Z,-6.48
2022-12-13T19:40:43.257Z,-6.53
2022-12-13T19:43:50.624Z,-6.54
2022-12-13T19:46:56.005Z,-6.54
2022-12-13T19:49:59.191Z,-6.53
2022-12-13T19:53:00.795Z,-6.56
2022-12-13T19:56:02.589Z,-6.57
2022-12-13T19:59:04.289Z,-6.55
2022-12-13T20:02:06.077Z,-6.51
2022-12-13T20:05:09.831Z,-6.50
2022-12-13T20:08:11.410Z,-6.51
2022-12-13T20:11:14.288Z,-6.49
2022-12-13T20:14:16.148Z,-6.42
2022-12-13T20:17:17.760Z,-6.44
2022-12-13T20:20:21.000Z,-6.33
2022-12-13T20:23:22.596Z,-6.26
2022-12-13T20:26:26.025Z,-6.23
2022-12-13T20:29:27.733Z,-6.17
2022-12-13T20:32:30.783Z,-6.16
2022-12-13T20:35:33.995Z,-6.13
2022-12-13T20:38:35.769Z,-6.15
2022-12-13T20:41:37.564Z,-6.16
2022-12-13T20:44:39.312Z,-6.16
2022-12-13T20:47:40.938Z,-6.17
2022-12-13T20:50:43.945Z,-6.17
2022-12-13T20:53:53.238Z,-6.11
2022-12-13T20:56:55.061Z,-6.08
2022-12-13T20:59:56.769Z,-6.02
2022-12-13T21:03:00.385Z,-6.04
2022-12-13T21:06:03.417Z,-6.02
2022-12-13T21:09:05.882Z,-6.03
2022-12-13T21:12:07.448Z,-6.03
2022-12-13T21:15:09.219Z,-6.01
2022-12-13T21:18:10.789Z,-6.02
2022-12-13T21:21:13.903Z,-6.02
2022-12-13T21:24:17.386Z,-5.97
2022-12-13T21:27:19.766Z,-6.00
2022-12-13T21:30:22.350Z,-6.03
2022-12-13T21:33:24.141Z,-5.96
2022-12-13T21:36:28.355Z,-5.92
2022-12-13T21:39:29.916Z,-5.88
2022-12-13T21:42:31.596Z,-5.86
2022-12-13T21:45:35.491Z,-5.84
2022-12-13T21:48:37.937Z,-5.85
2022-12-13T21:51:47.358Z,-5.84
2022-12-13T21:54:52.800Z,-5.82
2022-12-13T21:58:15.991Z,-5.81
2022-12-13T22:01:17.779Z,-5.80
2022-12-13T22:04:20.143Z,-5.80
2022-12-13T22:07:24.440Z,-5.81
2022-12-13T22:10:26.242Z,-5.79
2022-12-13T22:13:28.415Z,-5.84
2022-12-13T22:16:30.366Z,-5.81
2022-12-13T22:19:32.774Z,-5.75
2022-12-13T22:22:37.310Z,-5.71
2022-12-13T22:25:39.005Z,-5.73
2022-12-13T22:28:40.748Z,-5.75
2022-12-13T22:31:42.548Z,-5.71
2022-12-13T22:34:45.083Z,-5.73
2022-12-13T22:37:49.956Z,-5.68
2022-12-13T22:40:51.728Z,-5.64
2022-12-13T22:43:53.555Z,-5.63
2022-12-13T22:46:55.682Z,-5.68
2022-12-13T22:49:57.327Z,-5.69
2022-12-13T22:53:00.627Z,-5.60
2022-12-13T22:56:06.025Z,-5.59
2022-12-13T22:59:08.275Z,-5.56
2022-12-13T23:02:10.403Z,-5.60
2022-12-13T23:05:12.262Z,-5.65
2022-12-13T23:08:15.342Z,-5.66
2022-12-13T23:11:35.605Z,-5.66
2022-12-13T23:14:37.419Z,-5.61
2022-12-13T23:17:39.003Z,-5.63
2022-12-13T23:20:40.749Z,-5.62
2022-12-13T23:23:43.982Z,-5.63
2022-12-13T23:26:45.722Z,-5.63
2022-12-13T23:29:47.370Z,-5.63
2022-12-13T23:32:49.056Z,-5.55
2022-12-13T23:35:57.157Z,-5.47
2022-12-13T23:39:00.558Z,-5.45
2022-12-13T23:42:02.381Z,-5.50
2022-12-13T23:45:04.244Z,-5.57
2022-12-13T23:48:06.359Z,-5.59
2022-12-13T23:51:10.127Z,-5.58
2022-12-13T23:54:16.534Z,-5.57
2022-12-13T23:57:18.187Z,-5.56
